Time;durP1;ratioP1;P1;durP2;ratioP2;P2;SDS_P1;SDS_P2;PMS_P1;PMS_P2;Temp;Humidity;BMP_temperature;BMP_pressure;BME280_temperature;BME280_humidity;BME280_pressure;Samples;Min_cycle;Max_cycle;Signal;HPM_P1;HPM_P2
2021/05/18 00:00:38;;;;;;;;;;;9.80;92.80;;;;;;4977191;28;19918;-67
2021/05/18 00:03:04;;;;;;;;;;;9.70;92.70;;;;;;4981341;28;19920;-69
2021/05/18 00:05:30;;;;;;;;;;;9.70;92.90;;;;;;4973574;28;19953;-69
2021/05/18 00:08:01;;;;;;;;;;;9.60;93.00;;;;;;4976790;28;19914;-69
2021/05/18 00:13:13;;;;;;;;;;;9.60;93.20;;;;;;4975526;28;19924;-69
2021/05/18 00:15:39;;;;;;;;;;;9.50;93.40;;;;;;4973974;28;20344;-70
2021/05/18 00:18:04;;;;;;;;;;;9.50;93.70;;;;;;4974730;28;19910;-68
2021/05/18 00:20:30;;;;;;;;;;;9.50;93.70;;;;;;4972767;28;19945;-68
2021/05/18 00:22:56;;;;;;;;;;;9.50;93.90;;;;;;4973567;28;19937;-68
2021/05/18 00:25:21;;;;;;;;;;;9.50;93.90;;;;;;4973041;28;19925;-67
2021/05/18 00:27:47;;;;;;;;;;;9.50;93.70;;;;;;4975158;28;19914;-69
2021/05/18 00:30:13;;;;;;;;;;;9.40;93.70;;;;;;4974975;28;20000;-68
2021/05/18 00:32:39;;;;;;;;;;;9.40;93.20;;;;;;4972870;28;19939;-70
2021/05/18 00:35:06;;;;;;;;;;;9.40;93.00;;;;;;4975813;28;19936;-68
2021/05/18 00:37:31;;;;;;;;;;;9.40;92.80;;;;;;4976788;28;19989;-68
2021/05/18 00:39:57;;;;;;;;;;;9.40;92.60;;;;;;4971082;28;19986;-68
2021/05/18 00:42:23;;;;;;;;;;;9.40;92.40;;;;;;4972516;28;19925;-67
2021/05/18 00:44:49;;;;;;;;;;;9.40;92.30;;;;;;4971985;28;19925;-69
2021/05/18 00:47:14;;;;;;;;;;;9.40;92.30;;;;;;4976331;28;20061;-68
2021/05/18 00:49:40;;;;;;;;;;;9.40;92.10;;;;;;4977226;28;20398;-68
2021/05/18 00:52:06;;;;;;;;;;;9.30;92.10;;;;;;4973613;28;19918;-68
2021/05/18 00:54:39;;;;;;;;;;;9.30;92.40;;;;;;4974447;28;20032;-67
2021/05/18 00:59:49;;;;;;;;;;;9.30;92.40;;;;;;4972447;28;20056;-68
2021/05/18 01:02:14;;;;;;;;;;;9.30;92.30;;;;;;4974760;28;19992;-67
2021/05/18 01:04:43;;;;;;;;;;;9.30;92.30;;;;;;4985025;28;19933;-68
2021/05/18 01:07:08;;;;;;;;;;;9.30;91.70;;;;;;4993313;28;19933;-68
2021/05/18 01:09:34;;;;;;;;;;;9.30;91.80;;;;;;4981180;28;20329;-67
2021/05/18 01:11:59;;;;;;;;;;;9.30;91.50;;;;;;4966189;28;19910;-67
2021/05/18 01:14:25;;;;;;;;;;;9.30;91.40;;;;;;4990119;28;20055;-68
2021/05/18 01:16:51;;;;;;;;;;;9.30;91.60;;;;;;4983295;28;19909;-68
2021/05/18 01:19:18;;;;;;;;;;;9.30;91.40;;;;;;4991895;28;20000;-67
2021/05/18 01:21:44;;;;;;;;;;;9.20;91.40;;;;;;4976987;28;19914;-68
2021/05/18 01:24:10;;;;;;;;;;;9.20;91.10;;;;;;4972547;28;20021;-68
2021/05/18 01:26:36;;;;;;;;;;;9.20;91.00;;;;;;4983601;28;20012;-68
2021/05/18 01:29:03;;;;;;;;;;;9.20;90.80;;;;;;4972282;28;19964;-69
2021/05/18 01:31:31;;;;;;;;;;;9.20;90.60;;;;;;4969262;28;20288;-68
2021/05/18 01:33:59;;;;;;;;;;;9.20;90.70;;;;;;4976897;28;19989;-68
2021/05/18 01:36:24;;;;;;;;;;;9.20;90.60;;;;;;4992321;28;19955;-69
2021/05/18 01:39:02;;;;;;;;;;;9.20;90.60;;;;;;4992311;28;19987;-68
2021/05/18 01:44:12;;;;;;;;;;;9.20;90.60;;;;;;5003434;28;19924;-69
2021/05/18 01:46:38;;;;;;;;;;;9.20;90.30;;;;;;4984850;28;19913;-67
2021/05/18 01:49:06;;;;;;;;;;;9.20;90.60;;;;;;4991978;28;20012;-69
2021/05/18 01:51:33;;;;;;;;;;;9.10;90.20;;;;;;4977618;28;20212;-67
2021/05/18 01:54:03;;;;;;;;;;;9.20;90.50;;;;;;4971092;28;19910;-68
2021/05/18 01:56:41;;;;;;;;;;;9.10;90.10;;;;;;4976103;28;20088;-68
2021/05/18 01:59:07;;;;;;;;;;;9.10;90.40;;;;;;4983437;28;19921;-68
2021/05/18 02:01:33;;;;;;;;;;;9.10;90.50;;;;;;4982843;28;20386;-68
2021/05/18 02:03:59;;;;;;;;;;;9.10;90.60;;;;;;5000397;28;20001;-68
2021/05/18 02:06:25;;;;;;;;;;;9.10;90.80;;;;;;4991546;28;20015;-68
2021/05/18 02:08:50;;;;;;;;;;;9.10;90.90;;;;;;4991578;28;20303;-69
2021/05/18 02:11:16;;;;;;;;;;;9.10;90.90;;;;;;4980704;28;19917;-69
2021/05/18 02:13:46;;;;;;;;;;;9.10;91.20;;;;;;4969320;28;19909;-68
2021/05/18 02:16:24;;;;;;;;;;;9.10;90.90;;;;;;4981517;28;19913;-68
2021/05/18 02:19:04;;;;;;;;;;;9.10;91.10;;;;;;4989199;28;20224;-68
2021/05/18 02:27:02;;;;;;;;;;;9.10;91.20;;;;;;4978316;28;19975;-69
2021/05/18 02:29:28;;;;;;;;;;;9.00;91.10;;;;;;4973111;28;20404;-70
2021/05/18 02:31:54;;;;;;;;;;;9.00;91.20;;;;;;4974272;28;20420;-68
2021/05/18 02:34:20;;;;;;;;;;;9.10;91.20;;;;;;4970748;28;19909;-69
2021/05/18 02:36:46;;;;;;;;;;;9.10;91.30;;;;;;4987141;28;19920;-69
2021/05/18 02:39:11;;;;;;;;;;;9.10;91.40;;;;;;4989698;28;19921;-69
2021/05/18 02:41:37;;;;;;;;;;;9.10;91.40;;;;;;4983938;28;20260;-68
2021/05/18 02:44:12;;;;;;;;;;;9.10;91.30;;;;;;4976463;28;19960;-68
2021/05/18 02:49:23;;;;;;;;;;;9.10;91.40;;;;;;5004565;28;19991;-68
2021/05/18 02:51:48;;;;;;;;;;;9.10;91.40;;;;;;4974298;28;19922;-68
2021/05/18 02:54:17;;;;;;;;;;;9.10;91.40;;;;;;4968967;28;19961;-68
2021/05/18 02:59:19;;;;;;;;;;;9.10;91.70;;;;;;4985654;28;19946;-69
2021/05/18 03:01:52;;;;;;;;;;;9.10;91.60;;;;;;4989776;28;19953;-69
2021/05/18 03:04:18;;;;;;;;;;;9.00;91.50;;;;;;4973916;28;19924;-68
2021/05/18 03:06:47;;;;;;;;;;;9.10;91.20;;;;;;4977761;28;19953;-69
2021/05/18 03:09:13;;;;;;;;;;;9.10;91.30;;;;;;4989309;28;19977;-68
2021/05/18 03:11:39;;;;;;;;;;;9.10;91.30;;;;;;4974121;28;20068;-68
2021/05/18 03:14:05;;;;;;;;;;;9.10;91.30;;;;;;4986995;28;19909;-68
2021/05/18 03:16:31;;;;;;;;;;;9.00;91.50;;;;;;4978536;28;19924;-68
2021/05/18 03:18:57;;;;;;;;;;;8.90;91.60;;;;;;4979556;28;19910;-69
2021/05/18 03:21:22;;;;;;;;;;;8.80;92.00;;;;;;4978701;28;19914;-66
2021/05/18 03:23:48;;;;;;;;;;;8.70;92.30;;;;;;4987165;28;19933;-68
2021/05/18 03:26:13;;;;;;;;;;;8.60;92.50;;;;;;4979673;28;19921;-68
2021/05/18 03:28:39;;;;;;;;;;;8.50;92.80;;;;;;4984445;28;20005;-68
2021/05/18 03:36:14;;;;;;;;;;;8.20;93.40;;;;;;4983642;28;20326;-67
2021/05/18 03:38:45;;;;;;;;;;;8.20;93.60;;;;;;4974561;28;19985;-68
2021/05/18 03:41:24;;;;;;;;;;;8.10;93.70;;;;;;4982324;28;19913;-68
2021/05/18 03:44:00;;;;;;;;;;;8.00;93.90;;;;;;4992554;28;19917;-68
2021/05/18 04:18:18;;;;;;;;;;;7.90;94.80;;;;;;4985464;28;20026;-69
2021/05/18 04:23:20;;;;;;;;;;;8.00;94.40;;;;;;4969295;28;20280;-69
2021/05/18 04:39:18;;;;;;;;;;;8.00;94.00;;;;;;4976870;28;20033;-68
2021/05/18 04:52:32;;;;;;;;;;;8.80;93.60;;;;;;4982392;28;20508;-66
2021/05/18 05:00:36;;;;;;;;;;;9.50;91.70;;;;;;4986655;28;19940;-67
2021/05/18 05:03:19;;;;;;;;;;;9.60;91.50;;;;;;4972098;28;20011;-69
2021/05/18 05:16:10;;;;;;;;;;;10.00;90.50;;;;;;4975789;28;19945;-69
2021/05/18 05:18:36;;;;;;;;;;;10.10;89.90;;;;;;4985225;28;19906;-68
2021/05/18 05:21:01;;;;;;;;;;;10.10;90.20;;;;;;4982963;28;19937;-68
2021/05/18 05:23:27;;;;;;;;;;;10.10;89.60;;;;;;4998307;28;19952;-66
2021/05/18 05:25:52;;;;;;;;;;;10.10;90.10;;;;;;4966645;28;19917;-67
2021/05/18 05:28:18;;;;;;;;;;;10.20;90.30;;;;;;4998699;28;19905;-68
2021/05/18 05:30:43;;;;;;;;;;;10.20;90.00;;;;;;5003107;28;19905;-68
2021/05/18 05:33:09;;;;;;;;;;;10.30;90.00;;;;;;4979870;28;19925;-68
2021/05/18 05:35:34;;;;;;;;;;;10.30;89.40;;;;;;5003096;28;20130;-68
2021/05/18 05:38:00;;;;;;;;;;;10.20;89.30;;;;;;4997272;28;20087;-68
2021/05/18 05:40:25;;;;;;;;;;;10.30;89.70;;;;;;4986112;28;20097;-68
2021/05/18 05:42:51;;;;;;;;;;;10.30;89.20;;;;;;4987968;28;19917;-67
2021/05/18 05:45:17;;;;;;;;;;;10.30;89.30;;;;;;4974849;28;20138;-68
2021/05/18 05:47:42;;;;;;;;;;;10.30;89.10;;;;;;4978407;28;21720;-68
2021/05/18 05:50:09;;;;;;;;;;;10.20;88.60;;;;;;4975252;28;20276;-68
2021/05/18 05:52:35;;;;;;;;;;;10.30;88.90;;;;;;4982595;28;19936;-69
2021/05/18 05:55:01;;;;;;;;;;;10.30;89.10;;;;;;4978059;28;19913;-66
2021/05/18 05:57:26;;;;;;;;;;;10.20;88.40;;;;;;4979364;28;19953;-67
2021/05/18 05:59:51;;;;;;;;;;;10.30;88.40;;;;;;4991640;28;19929;-70
2021/05/18 06:02:17;;;;;;;;;;;10.40;88.70;;;;;;4989073;28;20487;-68
2021/05/18 06:04:43;;;;;;;;;;;10.30;88.20;;;;;;4992978;28;19910;-68
2021/05/18 06:07:08;;;;;;;;;;;10.40;88.40;;;;;;4975296;28;20281;-67
2021/05/18 06:09:36;;;;;;;;;;;10.50;88.30;;;;;;4973995;28;19916;-68
2021/05/18 06:41:51;;;;;;;;;;;10.80;87.40;;;;;;4993435;28;19965;-68
2021/05/18 06:47:29;;;;;;;;;;;11.00;86.80;;;;;;4980211;28;19925;-69
2021/05/18 06:50:08;;;;;;;;;;;11.30;86.50;;;;;;4974033;28;19976;-68
2021/05/18 06:52:34;;;;;;;;;;;11.40;86.20;;;;;;4997159;28;19928;-68
2021/05/18 06:54:59;;;;;;;;;;;11.50;85.30;;;;;;4997056;28;19910;-68
2021/05/18 06:57:25;;;;;;;;;;;11.60;85.20;;;;;;4977625;28;21819;-69
2021/05/18 07:00:10;;;;;;;;;;;11.60;84.70;;;;;;4978342;28;20128;-68
2021/05/18 07:02:37;;;;;;;;;;;11.80;84.80;;;;;;4983128;28;19925;-69
2021/05/18 07:05:03;;;;;;;;;;;11.80;83.50;;;;;;4994313;28;19975;-69
2021/05/18 07:07:32;;;;;;;;;;;12.00;83.80;;;;;;4992540;28;19913;-69
2021/05/18 07:09:58;;;;;;;;;;;12.00;82.70;;;;;;4995552;28;20010;-69
2021/05/18 07:12:23;;;;;;;;;;;12.00;82.70;;;;;;4993349;28;20043;-68
2021/05/18 07:14:49;;;;;;;;;;;12.20;81.70;;;;;;4997110;28;19910;-68
2021/05/18 07:17:14;;;;;;;;;;;12.30;81.10;;;;;;4992958;28;19981;-69
2021/05/18 07:19:40;;;;;;;;;;;12.30;82.20;;;;;;5003016;28;19926;-69
2021/05/18 07:22:07;;;;;;;;;;;12.20;81.60;;;;;;4971360;28;19918;-67
2021/05/18 07:24:32;;;;;;;;;;;12.60;81.20;;;;;;4993683;28;20016;-68
2021/05/18 07:26:59;;;;;;;;;;;12.70;80.60;;;;;;4994285;28;20023;-68
2021/05/18 07:29:24;;;;;;;;;;;12.70;80.30;;;;;;4999943;28;20329;-68
2021/05/18 07:31:50;;;;;;;;;;;12.90;79.50;;;;;;4975303;28;20024;-68
2021/05/18 07:34:15;;;;;;;;;;;13.00;79.90;;;;;;4996713;28;19917;-68
2021/05/18 07:36:41;;;;;;;;;;;13.00;79.80;;;;;;4984157;28;19917;-67
2021/05/18 07:39:06;;;;;;;;;;;13.10;79.10;;;;;;4985731;28;19907;-68
2021/05/18 07:41:33;;;;;;;;;;;13.10;77.40;;;;;;4981428;28;20027;-67
2021/05/18 07:44:02;;;;;;;;;;;13.00;78.30;;;;;;4992302;28;20310;-67
2021/05/18 07:46:27;;;;;;;;;;;12.90;78.00;;;;;;4992477;28;20028;-67
2021/05/18 08:07:19;;;;;;;;;;;12.80;73.00;;;;;;4988284;28;19937;-67
2021/05/18 08:09:52;;;;;;;;;;;12.70;74.50;;;;;;4988076;28;19924;-68
2021/05/18 08:12:18;;;;;;;;;;;12.80;75.00;;;;;;4977252;28;20525;-67
2021/05/18 08:14:54;;;;;;;;;;;12.60;75.60;;;;;;4973505;28;19914;-66
2021/05/18 10:38:34;;;;;;;;;;;13.90;65.50;;;;;;4959322;28;20395;-67
2021/05/18 10:41:06;;;;;;;;;;;13.90;67.90;;;;;;4962188;28;20241;-68
2021/05/18 10:43:32;;;;;;;;;;;14.10;66.60;;;;;;4955487;28;20301;-68
2021/05/18 10:46:00;;;;;;;;;;;14.20;66.50;;;;;;4963434;28;19948;-67
2021/05/18 10:48:25;;;;;;;;;;;14.30;66.10;;;;;;4964564;28;20355;-69
2021/05/18 10:50:51;;;;;;;;;;;14.40;64.40;;;;;;4963804;28;20017;-68
2021/05/18 10:53:24;;;;;;;;;;;14.30;63.30;;;;;;4958728;28;19922;-69
2021/05/18 10:56:09;;;;;;;;;;;14.40;62.00;;;;;;4959237;28;20004;-67
2021/05/18 10:58:35;;;;;;;;;;;14.60;62.50;;;;;;4976042;28;19910;-66
2021/05/18 11:01:01;;;;;;;;;;;14.60;61.70;;;;;;4958166;28;19924;-67
2021/05/18 11:03:26;;;;;;;;;;;14.60;61.40;;;;;;4959485;28;19941;-69
2021/05/18 11:05:52;;;;;;;;;;;14.60;62.70;;;;;;4961317;28;20203;-68
2021/05/18 11:08:18;;;;;;;;;;;14.90;64.00;;;;;;4964013;28;19914;-68
2021/05/18 11:10:45;;;;;;;;;;;14.90;62.90;;;;;;4965845;28;19997;-68
2021/05/18 11:13:10;;;;;;;;;;;15.00;62.20;;;;;;4961438;28;19977;-68
2021/05/18 11:15:36;;;;;;;;;;;15.00;63.20;;;;;;4962621;28;19929;-70
2021/05/18 11:18:03;;;;;;;;;;;15.10;63.20;;;;;;4959012;28;19957;-68
2021/05/18 11:26:06;;;;;;;;;;;14.60;62.30;;;;;;4962368;28;19925;-68
2021/05/18 11:28:36;;;;;;;;;;;14.40;63.90;;;;;;4963687;28;19933;-67
2021/05/18 11:31:10;;;;;;;;;;;14.00;63.00;;;;;;4964078;28;19918;-68
2021/05/18 11:33:47;;;;;;;;;;;14.00;64.40;;;;;;4969339;28;19910;-68
2021/05/18 11:36:20;;;;;;;;;;;13.80;66.00;;;;;;4975802;28;19927;-68
2021/05/18 11:38:50;;;;;;;;;;;13.70;64.70;;;;;;4975623;28;20016;-68
2021/05/18 11:41:23;;;;;;;;;;;13.80;66.80;;;;;;4980882;28;20399;-67
2021/05/18 11:43:49;;;;;;;;;;;13.60;66.50;;;;;;4962774;28;19914;-68
2021/05/18 11:46:15;;;;;;;;;;;13.50;67.10;;;;;;4972169;28;19914;-68
2021/05/18 11:48:53;;;;;;;;;;;13.60;66.60;;;;;;4968900;28;20411;-68
2021/05/18 11:51:18;;;;;;;;;;;13.90;66.30;;;;;;4964099;28;19951;-68
2021/05/18 11:53:45;;;;;;;;;;;14.20;66.20;;;;;;4972626;28;19975;-69
2021/05/18 11:56:30;;;;;;;;;;;14.60;63.90;;;;;;4981311;28;19917;-69
2021/05/18 11:59:15;;;;;;;;;;;15.00;63.80;;;;;;4965121;28;19940;-67
2021/05/18 12:01:44;;;;;;;;;;;15.30;60.60;;;;;;4951745;28;23455;-69
2021/05/18 12:04:17;;;;;;;;;;;15.70;59.30;;;;;;4970766;28;19914;-67
2021/05/18 12:06:58;;;;;;;;;;;16.10;58.70;;;;;;4961941;28;19918;-69
2021/05/18 12:09:24;;;;;;;;;;;16.70;57.30;;;;;;4957611;28;20000;-70
2021/05/18 12:12:00;;;;;;;;;;;17.00;56.80;;;;;;4962692;28;19966;-70
2021/05/18 12:14:26;;;;;;;;;;;17.10;55.10;;;;;;4961414;28;20155;-70
2021/05/18 12:16:52;;;;;;;;;;;16.80;57.70;;;;;;4962128;28;19922;-70
2021/05/18 12:19:18;;;;;;;;;;;16.30;59.70;;;;;;4961031;28;20008;-69
2021/05/18 12:21:46;;;;;;;;;;;16.30;57.90;;;;;;4963276;28;19930;-69
2021/05/18 12:24:14;;;;;;;;;;;16.40;58.10;;;;;;4962086;28;19925;-69
2021/05/18 12:26:51;;;;;;;;;;;16.00;57.90;;;;;;4963347;28;19989;-68
2021/05/18 12:29:35;;;;;;;;;;;16.40;57.70;;;;;;4956347;28;19910;-68
2021/05/18 12:32:16;;;;;;;;;;;16.90;55.50;;;;;;4957468;28;19952;-68
2021/05/18 12:34:41;;;;;;;;;;;17.80;53.60;;;;;;4961376;28;19949;-68
2021/05/18 12:37:07;;;;;;;;;;;18.50;51.60;;;;;;4961876;28;20048;-69
2021/05/18 12:39:33;;;;;;;;;;;18.00;52.50;;;;;;4957409;28;20002;-67
2021/05/18 12:42:01;;;;;;;;;;;17.60;52.20;;;;;;4959673;28;19966;-70
2021/05/18 12:44:28;;;;;;;;;;;18.00;51.70;;;;;;4961119;28;20312;-68
2021/05/18 12:47:11;;;;;;;;;;;17.20;53.20;;;;;;4962141;28;20487;-69
2021/05/18 12:49:38;;;;;;;;;;;16.70;55.30;;;;;;4960078;28;19918;-69
2021/05/18 12:52:05;;;;;;;;;;;16.00;56.90;;;;;;4960511;28;19929;-68
2021/05/18 12:54:37;;;;;;;;;;;15.40;58.50;;;;;;4959490;28;19921;-68
2021/05/18 12:57:03;;;;;;;;;;;15.00;59.70;;;;;;4962484;28;19938;-68
2021/05/18 12:59:28;;;;;;;;;;;14.70;60.90;;;;;;4962633;28;19914;-68
2021/05/18 13:01:54;;;;;;;;;;;14.50;62.90;;;;;;4959354;28;20413;-68
2021/05/18 13:04:19;;;;;;;;;;;14.10;66.10;;;;;;4957666;28;20329;-68
2021/05/18 13:06:45;;;;;;;;;;;13.70;70.10;;;;;;4963686;28;20213;-68
2021/05/18 13:09:17;;;;;;;;;;;13.40;74.90;;;;;;4959909;28;19910;-68
2021/05/18 13:14:26;;;;;;;;;;;12.60;78.20;;;;;;4958492;28;20013;-68
2021/05/18 13:17:03;;;;;;;;;;;12.60;81.40;;;;;;4961573;28;19989;-67
2021/05/18 13:19:29;;;;;;;;;;;12.70;81.30;;;;;;4961711;28;19976;-67
2021/05/18 13:21:57;;;;;;;;;;;12.70;80.90;;;;;;4963237;28;19914;-67
2021/05/18 13:27:08;;;;;;;;;;;13.20;80.10;;;;;;4958931;28;19921;-67
2021/05/18 13:29:35;;;;;;;;;;;13.20;76.90;;;;;;4958492;28;19922;-67
2021/05/18 13:32:02;;;;;;;;;;;13.30;77.40;;;;;;4959973;28;20391;-67
2021/05/18 13:34:27;;;;;;;;;;;13.50;76.90;;;;;;4959814;28;19924;-67
2021/05/18 13:36:53;;;;;;;;;;;13.60;73.50;;;;;;4956146;28;19909;-68
2021/05/18 13:39:20;;;;;;;;;;;13.80;73.00;;;;;;4958246;28;19970;-67
2021/05/18 13:41:46;;;;;;;;;;;13.90;73.10;;;;;;4958636;28;19964;-68
2021/05/18 13:44:13;;;;;;;;;;;13.80;71.80;;;;;;4959727;28;20385;-69
2021/05/18 13:46:38;;;;;;;;;;;14.00;71.10;;;;;;4956799;28;19955;-67
2021/05/18 13:49:04;;;;;;;;;;;13.90;69.90;;;;;;4962208;28;19914;-68
2021/05/18 13:51:30;;;;;;;;;;;14.00;69.00;;;;;;4961981;28;19952;-69
2021/05/18 13:53:56;;;;;;;;;;;13.90;67.80;;;;;;4956017;28;20013;-67
2021/05/18 13:56:23;;;;;;;;;;;14.10;69.80;;;;;;4961362;28;20281;-65
2021/05/18 13:58:52;;;;;;;;;;;14.40;67.50;;;;;;4961942;28;19924;-67
2021/05/18 14:01:18;;;;;;;;;;;14.40;66.20;;;;;;4960813;28;19928;-66
2021/05/18 14:03:43;;;;;;;;;;;14.50;67.00;;;;;;4959780;28;19914;-69
2021/05/18 14:06:10;;;;;;;;;;;14.80;69.40;;;;;;4957974;28;19921;-68
2021/05/18 14:08:37;;;;;;;;;;;14.70;62.70;;;;;;4958710;28;20319;-68
2021/05/18 14:11:15;;;;;;;;;;;15.30;63.40;;;;;;4958297;28;19969;-68
2021/05/18 14:13:41;;;;;;;;;;;15.70;62.70;;;;;;4954458;28;19973;-68
2021/05/18 14:16:09;;;;;;;;;;;15.50;61.10;;;;;;4974898;28;19930;-67
2021/05/18 14:18:35;;;;;;;;;;;15.40;59.40;;;;;;4957586;28;20248;-66
2021/05/18 14:21:04;;;;;;;;;;;15.80;62.00;;;;;;4961695;28;19920;-67
2021/05/18 14:24:19;;;;;;;;;;;15.50;61.00;;;;;;4960862;28;19918;-68
2021/05/18 14:26:22;;;;;;;;;;;15.90;62.60;;;;;;4952569;28;20013;-69
2021/05/18 14:28:48;;;;;;;;;;;15.80;59.00;;;;;;4958815;28;19936;-68
2021/05/18 14:31:14;;;;;;;;;;;15.80;58.90;;;;;;4957171;28;19910;-68
2021/05/18 14:33:40;;;;;;;;;;;16.30;61.30;;;;;;4958369;28;19921;-68
2021/05/18 14:36:06;;;;;;;;;;;17.70;59.70;;;;;;4962915;28;19997;-68
2021/05/18 14:38:32;;;;;;;;;;;18.80;55.70;;;;;;4960718;28;20303;-66
2021/05/18 14:46:31;;;;;;;;;;;18.50;52.20;;;;;;4961844;28;19953;-68
2021/05/18 14:56:52;;;;;;;;;;;16.10;58.00;;;;;;4959394;28;19972;-67
2021/05/18 14:59:17;;;;;;;;;;;15.90;60.20;;;;;;4964363;28;20013;-67
2021/05/18 15:01:43;;;;;;;;;;;15.60;61.20;;;;;;4962834;28;19964;-67
2021/05/18 15:04:08;;;;;;;;;;;15.20;62.20;;;;;;4959683;28;19917;-69
2021/05/18 15:06:34;;;;;;;;;;;15.00;63.70;;;;;;4963482;28;19994;-67
2021/05/18 15:09:00;;;;;;;;;;;14.80;63.00;;;;;;4964717;28;19996;-67
2021/05/18 15:11:25;;;;;;;;;;;14.60;64.00;;;;;;4963143;28;19971;-68
2021/05/18 15:13:51;;;;;;;;;;;14.40;64.80;;;;;;4959005;28;20011;-67
2021/05/18 15:16:16;;;;;;;;;;;13.80;71.50;;;;;;4964150;28;19917;-67
2021/05/18 15:18:44;;;;;;;;;;;12.80;80.40;;;;;;4962582;28;19910;-67
2021/05/18 15:21:10;;;;;;;;;;;12.10;83.20;;;;;;4962008;28;19925;-68
2021/05/18 15:23:36;;;;;;;;;;;11.60;85.80;;;;;;4962173;28;19922;-68
2021/05/18 15:26:01;;;;;;;;;;;11.20;86.00;;;;;;4964803;28;20062;-67
2021/05/18 15:28:26;;;;;;;;;;;11.10;86.20;;;;;;4962254;28;20004;-66
2021/05/18 15:30:52;;;;;;;;;;;11.00;87.20;;;;;;4961079;28;19992;-67
2021/05/18 15:33:18;;;;;;;;;;;11.10;87.70;;;;;;4961424;28;19910;-68
2021/05/18 15:35:43;;;;;;;;;;;11.00;88.30;;;;;;4960838;28;19918;-68
2021/05/18 15:38:09;;;;;;;;;;;11.00;88.10;;;;;;4962581;28;19917;-69
2021/05/18 15:40:34;;;;;;;;;;;11.00;88.00;;;;;;4960503;28;20072;-68
2021/05/18 15:43:00;;;;;;;;;;;11.30;88.10;;;;;;4961456;28;19994;-67
2021/05/18 15:45:25;;;;;;;;;;;11.60;87.50;;;;;;4962254;28;19921;-68
2021/05/18 15:47:51;;;;;;;;;;;11.60;86.50;;;;;;4957927;28;20452;-68
2021/05/18 15:50:16;;;;;;;;;;;11.80;85.80;;;;;;4957859;28;19920;-66
2021/05/18 15:52:42;;;;;;;;;;;12.10;86.00;;;;;;4963316;28;19943;-68
2021/05/18 15:55:07;;;;;;;;;;;12.10;82.80;;;;;;4958264;28;19917;-68
2021/05/18 15:57:33;;;;;;;;;;;13.30;82.90;;;;;;4965077;28;19916;-68
2021/05/18 15:59:58;;;;;;;;;;;14.40;79.30;;;;;;4962313;28;19984;-68
2021/05/18 16:02:24;;;;;;;;;;;14.80;74.60;;;;;;4954825;28;20376;-69
2021/05/18 16:04:49;;;;;;;;;;;14.60;73.80;;;;;;4962037;28;19922;-68
2021/05/18 16:07:17;;;;;;;;;;;14.40;75.90;;;;;;4960757;28;19923;-68
2021/05/18 16:09:43;;;;;;;;;;;14.30;76.10;;;;;;4960839;28;20408;-69
2021/05/18 16:12:09;;;;;;;;;;;14.00;76.20;;;;;;4959530;28;20072;-68
2021/05/18 16:14:35;;;;;;;;;;;13.60;76.40;;;;;;4959554;28;19960;-68
2021/05/18 16:17:01;;;;;;;;;;;13.40;76.80;;;;;;4957795;28;19914;-67
2021/05/18 16:19:27;;;;;;;;;;;13.40;78.10;;;;;;4963868;28;19910;-68
2021/05/18 16:21:52;;;;;;;;;;;13.10;78.50;;;;;;4961961;28;20017;-68
2021/05/18 16:24:20;;;;;;;;;;;13.00;79.00;;;;;;4960644;28;20009;-68
2021/05/18 16:26:46;;;;;;;;;;;13.00;78.60;;;;;;4955468;28;19945;-68
2021/05/18 16:29:11;;;;;;;;;;;13.10;80.10;;;;;;4960159;28;19926;-67
2021/05/18 16:31:37;;;;;;;;;;;13.10;78.80;;;;;;4959957;28;19910;-68
2021/05/18 16:34:03;;;;;;;;;;;12.80;78.00;;;;;;4957531;28;19930;-67
2021/05/18 16:36:28;;;;;;;;;;;13.00;78.40;;;;;;4961084;28;19925;-68
2021/05/18 16:38:55;;;;;;;;;;;13.00;78.40;;;;;;4958223;28;20253;-68
2021/05/18 16:41:21;;;;;;;;;;;12.90;77.80;;;;;;4958919;28;20281;-68
2021/05/18 16:43:46;;;;;;;;;;;13.00;78.60;;;;;;4960870;28;19922;-68
2021/05/18 16:46:12;;;;;;;;;;;13.00;78.80;;;;;;4961188;28;20004;-67
2021/05/18 16:48:38;;;;;;;;;;;13.10;79.80;;;;;;4957577;28;19922;-68
2021/05/18 16:51:05;;;;;;;;;;;13.30;79.50;;;;;;4961476;28;19910;-68
2021/05/18 16:53:31;;;;;;;;;;;13.20;75.50;;;;;;4961214;28;20020;-67
2021/05/18 16:55:58;;;;;;;;;;;13.10;77.50;;;;;;4962092;28;19971;-69
2021/05/18 16:58:24;;;;;;;;;;;13.20;77.90;;;;;;4963338;28;20151;-69
2021/05/18 17:00:49;;;;;;;;;;;13.30;76.00;;;;;;4959829;28;19918;-68
2021/05/18 17:03:15;;;;;;;;;;;13.20;77.20;;;;;;4959120;28;20249;-68
2021/05/18 17:05:40;;;;;;;;;;;13.00;75.20;;;;;;4960271;28;19910;-69
2021/05/18 17:08:06;;;;;;;;;;;13.10;75.70;;;;;;4957959;28;19906;-68
2021/05/18 17:10:33;;;;;;;;;;;13.30;76.50;;;;;;4958970;28;20322;-66
2021/05/18 17:12:59;;;;;;;;;;;13.30;76.30;;;;;;4956576;28;20110;-69
2021/05/18 17:15:25;;;;;;;;;;;13.40;74.80;;;;;;4957067;28;20294;-67
2021/05/18 17:17:51;;;;;;;;;;;13.50;75.70;;;;;;4957982;28;20107;-67
2021/05/18 17:20:17;;;;;;;;;;;13.10;75.20;;;;;;4958511;28;19946;-67
2021/05/18 17:22:43;;;;;;;;;;;12.90;75.60;;;;;;4955750;28;19996;-68
2021/05/18 17:25:09;;;;;;;;;;;12.90;74.80;;;;;;4958131;28;20413;-67
2021/05/18 17:27:35;;;;;;;;;;;12.80;76.80;;;;;;4958204;28;19918;-66
2021/05/18 17:30:00;;;;;;;;;;;12.70;77.10;;;;;;4955212;28;20276;-68
2021/05/18 17:32:26;;;;;;;;;;;12.60;79.50;;;;;;4959621;28;20104;-68
2021/05/18 17:34:51;;;;;;;;;;;12.50;79.30;;;;;;4959073;28;20038;-68
2021/05/18 17:37:17;;;;;;;;;;;12.40;80.70;;;;;;4962899;28;19910;-69
2021/05/18 17:39:42;;;;;;;;;;;12.50;82.30;;;;;;4961278;28;20325;-68
2021/05/18 17:42:08;;;;;;;;;;;12.40;82.00;;;;;;4960002;28;20104;-66
2021/05/18 17:44:35;;;;;;;;;;;12.50;81.10;;;;;;4955135;28;19914;-67
2021/05/18 17:47:00;;;;;;;;;;;12.60;81.60;;;;;;4955653;28;19986;-68
2021/05/18 17:49:26;;;;;;;;;;;12.60;79.40;;;;;;4961242;28;19954;-68
2021/05/18 17:51:52;;;;;;;;;;;12.70;79.20;;;;;;4958464;28;19910;-67
2021/05/18 17:54:19;;;;;;;;;;;12.60;78.50;;;;;;4960070;28;19922;-68
2021/05/18 17:56:45;;;;;;;;;;;12.60;78.70;;;;;;4958233;28;19914;-68
2021/05/18 17:59:10;;;;;;;;;;;12.60;78.60;;;;;;4952217;28;20242;-68
2021/05/18 18:01:37;;;;;;;;;;;12.60;78.00;;;;;;4958482;28;19921;-68
2021/05/18 18:04:03;;;;;;;;;;;12.50;79.20;;;;;;4958851;28;19968;-68
2021/05/18 18:06:29;;;;;;;;;;;12.50;79.10;;;;;;4961290;28;19958;-68
2021/05/18 18:08:57;;;;;;;;;;;12.50;77.60;;;;;;4962133;28;20010;-68
2021/05/18 18:11:23;;;;;;;;;;;12.50;78.60;;;;;;4958306;28;19913;-68
2021/05/18 18:13:48;;;;;;;;;;;12.50;78.30;;;;;;4958016;28;20567;-67
2021/05/18 18:16:15;;;;;;;;;;;12.40;78.20;;;;;;4957610;28;19918;-68
2021/05/18 18:18:41;;;;;;;;;;;12.40;78.10;;;;;;4959584;28;19949;-68
2021/05/18 18:21:07;;;;;;;;;;;12.30;79.30;;;;;;4955242;28;19956;-68
2021/05/18 18:23:33;;;;;;;;;;;12.30;78.00;;;;;;4959257;28;19984;-68
2021/05/18 18:25:59;;;;;;;;;;;12.20;77.30;;;;;;4958712;28;19914;-68
2021/05/18 18:28:24;;;;;;;;;;;12.20;77.50;;;;;;4960061;28;19910;-69
2021/05/18 18:30:50;;;;;;;;;;;12.10;80.00;;;;;;4959452;28;19914;-68
2021/05/18 18:33:15;;;;;;;;;;;12.10;78.60;;;;;;4961735;28;19924;-67
2021/05/18 18:35:41;;;;;;;;;;;12.00;79.80;;;;;;4955378;28;19992;-68
2021/05/18 18:38:09;;;;;;;;;;;12.00;79.40;;;;;;4959825;28;20290;-69
2021/05/18 18:40:35;;;;;;;;;;;11.80;81.40;;;;;;4959922;28;20005;-67
2021/05/18 18:43:00;;;;;;;;;;;11.70;80.00;;;;;;4966881;28;19925;-68
2021/05/18 18:45:26;;;;;;;;;;;11.70;80.90;;;;;;4961128;28;20001;-67
2021/05/18 18:47:52;;;;;;;;;;;11.60;80.70;;;;;;4959966;28;20375;-67
2021/05/18 18:50:21;;;;;;;;;;;11.50;82.30;;;;;;4961969;28;19914;-68
2021/05/18 18:55:13;;;;;;;;;;;11.30;83.00;;;;;;4963926;28;20311;-68
2021/05/18 18:57:39;;;;;;;;;;;11.30;82.90;;;;;;4964491;28;19917;-67
2021/05/18 19:00:06;;;;;;;;;;;11.30;82.40;;;;;;4960020;28;20342;-68
2021/05/18 19:02:52;;;;;;;;;;;11.30;82.70;;;;;;4964116;28;19918;-66
2021/05/18 19:13:21;;;;;;;;;;;10.90;83.70;;;;;;4962112;28;19933;-68
2021/05/18 19:15:46;;;;;;;;;;;10.80;84.50;;;;;;4964235;28;19970;-68
2021/05/18 19:18:12;;;;;;;;;;;10.80;84.50;;;;;;4966191;28;19910;-69
2021/05/18 19:20:37;;;;;;;;;;;10.70;84.70;;;;;;4958923;28;20000;-69
2021/05/18 19:23:03;;;;;;;;;;;10.70;85.20;;;;;;4964467;28;19914;-68
2021/05/18 19:25:29;;;;;;;;;;;10.50;86.00;;;;;;4957455;28;19968;-67
2021/05/18 19:27:59;;;;;;;;;;;10.40;86.90;;;;;;4966488;28;20088;-67
2021/05/18 19:30:25;;;;;;;;;;;10.30;87.10;;;;;;4963368;28;19935;-68
2021/05/18 19:32:50;;;;;;;;;;;10.10;87.80;;;;;;4963148;28;19914;-67
2021/05/18 19:36:07;;;;;;;;;;;10.10;87.70;;;;;;4962799;28;20310;-68
2021/05/18 19:49:04;;;;;;;;;;;9.50;90.40;;;;;;4963451;28;19944;-68
2021/05/18 19:51:29;;;;;;;;;;;9.50;90.70;;;;;;4953530;28;20726;-67
2021/05/18 19:53:55;;;;;;;;;;;9.50;90.60;;;;;;4961061;28;19992;-67
2021/05/18 19:56:27;;;;;;;;;;;9.60;90.60;;;;;;4960988;28;19921;-67
2021/05/18 20:20:51;;;;;;;;;;;8.70;91.70;;;;;;4947806;28;20445;-67